createdAt,value
2022-09-02T00:00:26.761Z,991.19
2022-09-02T00:01:26.684Z,991.19
2022-09-02T00:02:26.775Z,991.18
2022-09-02T00:03:27.011Z,991.18
2022-09-02T00:04:26.493Z,991.20
2022-09-02T00:05:26.379Z,991.17
2022-09-02T00:06:26.311Z,991.16
2022-09-02T00:07:26.227Z,991.17
2022-09-02T00:08:26.152Z,991.16
2022-09-02T00:09:26.124Z,991.15
2022-09-02T00:10:26.034Z,991.16
2022-09-02T00:11:25.923Z,991.11
2022-09-02T00:12:26.085Z,991.14
2022-09-02T00:13:25.769Z,991.11
2022-09-02T00:14:25.733Z,991.09
2022-09-02T00:15:25.616Z,991.12
2022-09-02T00:16:25.602Z,991.11
2022-09-02T00:17:25.615Z,991.07
2022-09-02T00:18:25.388Z,991.09
2022-09-02T00:19:25.313Z,991.06
2022-09-02T00:20:25.234Z,991.05
2022-09-02T00:21:25.197Z,991.06
2022-09-02T00:22:25.083Z,991.02
2022-09-02T00:23:27.213Z,991.05
2022-09-02T00:24:24.931Z,991.05
2022-09-02T00:25:24.855Z,991.02
2022-09-02T00:26:24.777Z,991.01
2022-09-02T00:33:24.442Z,990.96
2022-09-02T00:34:24.200Z,990.99
2022-09-02T00:35:24.087Z,990.99
2022-09-02T00:36:24.044Z,990.96
2022-09-02T00:37:23.967Z,991.01
2022-09-02T00:38:23.894Z,991.00
2022-09-02T00:39:24.218Z,990.96
2022-09-02T00:41:06.187Z,990.95
2022-09-02T00:42:06.110Z,990.96
2022-09-02T00:43:06.134Z,990.90
2022-09-02T00:44:05.964Z,990.89
2022-09-02T00:45:05.879Z,990.87
2022-09-02T00:46:05.827Z,990.89
2022-09-02T00:47:05.727Z,990.86
2022-09-02T00:48:05.649Z,990.86
2022-09-02T00:49:05.573Z,990.84
2022-09-02T00:50:05.495Z,990.86
2022-09-02T00:51:06.968Z,990.81
2022-09-02T00:52:05.345Z,990.85
2022-09-02T00:53:05.266Z,990.85
2022-09-02T00:54:05.189Z,990.87
2022-09-02T00:55:05.113Z,990.82
2022-09-02T00:56:05.085Z,990.83
2022-09-02T00:57:04.959Z,990.82
2022-09-02T00:58:04.883Z,990.80
2022-09-02T00:59:04.805Z,990.79
2022-09-02T01:00:04.730Z,990.84
2022-09-02T01:01:05.158Z,990.86
2022-09-02T01:02:04.673Z,990.86
2022-09-02T01:03:04.497Z,990.82
2022-09-02T01:04:04.420Z,990.82
2022-09-02T01:05:04.343Z,990.86
2022-09-02T01:06:04.269Z,990.85
2022-09-02T01:07:04.190Z,990.87
2022-09-02T01:08:04.115Z,990.81
2022-09-02T01:09:04.038Z,990.81
2022-09-02T01:10:03.960Z,990.79
2022-09-02T01:11:03.885Z,990.84
2022-09-02T01:12:03.805Z,990.80
2022-09-02T01:13:03.727Z,990.80
2022-09-02T01:14:03.657Z,990.78
2022-09-02T01:25:44.502Z,990.72
2022-09-02T01:26:44.426Z,990.72
2022-09-02T01:27:44.397Z,990.72
2022-09-02T01:36:41.222Z,990.68
2022-09-02T01:37:41.956Z,990.70
2022-09-02T01:38:41.075Z,990.68
2022-09-02T01:41:24.652Z,990.70
2022-09-02T01:42:24.575Z,990.70
2022-09-02T01:43:24.496Z,990.71
2022-09-02T01:46:08.078Z,990.72
2022-09-02T01:47:08.203Z,990.70
2022-09-02T01:48:07.928Z,990.79
2022-09-02T01:50:51.558Z,990.79
2022-09-02T01:51:51.431Z,990.77
2022-09-02T01:52:51.354Z,990.74
2022-09-02T01:55:34.986Z,990.74
2022-09-02T01:56:34.863Z,990.75
2022-09-02T01:57:34.780Z,990.74
2022-09-02T01:58:53.914Z,990.73
2022-09-02T02:00:07.842Z,990.71
2022-09-02T02:00:34.569Z,990.74
2022-09-02T02:01:34.511Z,990.73
2022-09-02T02:02:34.395Z,990.70
2022-09-02T02:03:34.318Z,990.69
2022-09-02T02:04:34.241Z,990.70
2022-09-02T02:05:34.164Z,990.69
2022-09-02T02:06:34.085Z,990.71
2022-09-02T02:07:34.013Z,990.69
2022-09-02T02:08:33.934Z,990.73
2022-09-02T02:09:33.856Z,990.73
2022-09-02T02:10:33.773Z,990.74
2022-09-02T02:11:33.700Z,990.73
2022-09-02T02:12:33.622Z,990.70
2022-09-02T02:13:33.548Z,990.67
2022-09-02T02:14:33.617Z,990.69
2022-09-02T02:15:33.395Z,990.71
2022-09-02T02:16:33.383Z,990.74
2022-09-02T02:17:33.237Z,990.67
2022-09-02T02:18:33.357Z,990.66
2022-09-02T02:19:33.080Z,990.68
2022-09-02T02:20:33.002Z,990.70
2022-09-02T02:21:32.923Z,990.71
2022-09-02T02:22:32.847Z,990.67
2022-09-02T02:23:32.771Z,990.66
2022-09-02T02:24:32.692Z,990.65
2022-09-02T02:25:32.617Z,990.68
2022-09-02T02:26:32.535Z,990.67
2022-09-02T02:27:32.460Z,990.67
2022-09-02T02:28:32.380Z,990.67
2022-09-02T02:29:32.303Z,990.69
2022-09-02T02:30:32.224Z,990.66
2022-09-02T02:31:32.230Z,990.68
2022-09-02T02:32:32.071Z,990.67
2022-09-02T02:33:36.274Z,990.66
2022-09-02T02:34:31.914Z,990.68
2022-09-02T02:35:31.840Z,990.67
2022-09-02T02:36:31.759Z,990.69
2022-09-02T02:37:31.684Z,990.66
2022-09-02T02:38:31.604Z,990.70
2022-09-02T02:39:31.531Z,990.67
2022-09-02T02:40:31.497Z,990.66
2022-09-02T02:41:31.372Z,990.67
2022-09-02T02:42:31.292Z,990.69
2022-09-02T02:43:31.215Z,990.68
2022-09-02T02:44:31.138Z,990.68
2022-09-02T02:45:31.061Z,990.66
2022-09-02T02:46:31.078Z,990.69
2022-09-02T02:47:30.906Z,990.68
2022-09-02T02:48:30.829Z,990.68
2022-09-02T02:49:30.750Z,990.67
2022-09-02T02:50:30.671Z,990.67
2022-09-02T02:51:30.598Z,990.65
2022-09-02T02:52:30.515Z,990.67
2022-09-02T02:53:30.440Z,990.65
2022-09-02T02:54:34.901Z,990.68
2022-09-02T02:55:30.283Z,990.68
2022-09-02T02:56:30.203Z,990.69
2022-09-02T02:57:30.129Z,990.71
2022-09-02T02:58:30.048Z,990.66
2022-09-02T02:59:29.974Z,990.65
2022-09-02T03:00:29.893Z,990.66
2022-09-02T03:01:29.882Z,990.65
2022-09-02T03:02:29.914Z,990.66
2022-09-02T03:03:29.660Z,990.67
2022-09-02T03:04:29.583Z,990.67
2022-09-02T03:05:29.507Z,990.67
2022-09-02T03:06:29.429Z,990.68
2022-09-02T03:07:29.354Z,990.69
2022-09-02T03:08:29.271Z,990.66
2022-09-02T03:09:29.197Z,990.64
2022-09-02T03:10:29.118Z,990.65
2022-09-02T03:11:29.042Z,990.67
2022-09-02T03:12:28.961Z,990.67
2022-09-02T03:13:29.468Z,990.65
2022-09-02T03:14:28.803Z,990.65
2022-09-02T03:15:28.730Z,990.64
2022-09-02T03:16:28.703Z,990.62
2022-09-02T03:17:28.574Z,990.58
2022-09-02T03:18:28.493Z,990.56
2022-09-02T03:19:28.418Z,990.57
2022-09-02T03:20:28.337Z,990.57
2022-09-02T03:21:28.264Z,990.60
2022-09-02T03:22:28.184Z,990.58
2022-09-02T03:23:28.108Z,990.53
2022-09-02T03:24:28.029Z,990.55
2022-09-02T03:25:31.202Z,990.56
2022-09-02T03:26:27.873Z,990.62
2022-09-02T03:27:27.796Z,990.58
2022-09-02T03:28:27.720Z,990.59
2022-09-02T03:29:27.640Z,990.55
2022-09-02T03:30:27.560Z,990.53
2022-09-02T03:31:27.641Z,990.51
2022-09-02T03:32:28.213Z,990.52
2022-09-02T03:33:27.329Z,990.53
2022-09-02T03:34:27.250Z,990.53
2022-09-02T03:35:27.177Z,990.51
2022-09-02T03:36:27.243Z,990.47
2022-09-02T03:37:27.016Z,990.48
2022-09-02T03:38:26.937Z,990.50
2022-09-02T03:39:26.860Z,990.49
2022-09-02T03:40:26.835Z,990.44
2022-09-02T03:41:26.705Z,990.45
2022-09-02T03:42:26.624Z,990.44
2022-09-02T03:43:26.548Z,990.52
2022-09-02T03:44:26.470Z,990.48
2022-09-02T03:45:26.395Z,990.49
2022-09-02T03:46:26.391Z,990.46
2022-09-02T03:47:26.236Z,990.49
2022-09-02T03:48:26.159Z,990.45
2022-09-02T03:49:26.083Z,990.43
2022-09-02T03:50:26.001Z,990.44
2022-09-02T03:51:25.926Z,990.46
2022-09-02T03:52:25.847Z,990.42
2022-09-02T03:53:25.882Z,990.45
2022-09-02T03:54:25.693Z,990.46
2022-09-02T03:55:25.712Z,990.45
2022-09-02T03:56:25.634Z,990.46
2022-09-02T03:57:25.458Z,990.45
2022-09-02T03:58:25.374Z,990.49
2022-09-02T03:59:25.300Z,990.46
2022-09-02T04:00:25.220Z,990.47
2022-09-02T04:01:28.020Z,990.42
2022-09-02T04:02:25.224Z,990.51
2022-09-02T04:03:25.146Z,990.47
2022-09-02T04:04:24.907Z,990.49
2022-09-02T04:05:24.833Z,990.46
2022-09-02T04:06:24.750Z,990.45
2022-09-02T04:07:24.672Z,990.45
2022-09-02T04:08:24.602Z,990.48
2022-09-02T04:09:24.516Z,990.41
2022-09-02T04:10:24.437Z,990.42
2022-09-02T04:11:25.169Z,990.42
2022-09-02T04:13:24.203Z,990.44
2022-09-02T04:14:24.126Z,990.43
2022-09-02T04:15:24.048Z,990.42
2022-09-02T04:16:24.009Z,990.46
2022-09-02T04:19:11.399Z,990.49
2022-09-02T04:20:11.260Z,990.45
2022-09-02T04:21:11.141Z,990.48
2022-09-02T04:22:11.064Z,990.47
2022-09-02T04:23:12.136Z,990.48
2022-09-02T04:24:10.945Z,990.48
2022-09-02T04:25:10.860Z,990.45
2022-09-02T04:26:10.749Z,990.43
2022-09-02T04:27:10.910Z,990.44
2022-09-02T04:29:10.514Z,990.47
2022-09-02T04:30:11.147Z,990.48
2022-09-02T04:31:10.640Z,990.45
2022-09-02T04:33:11.758Z,990.50
2022-09-02T04:34:10.325Z,990.48
2022-09-02T04:36:09.999Z,990.43
2022-09-02T04:39:09.731Z,990.42
2022-09-02T04:40:09.695Z,990.45
2022-09-02T04:41:09.577Z,990.47
2022-09-02T04:43:42.007Z,990.45
2022-09-02T04:44:41.931Z,990.48
2022-09-02T04:45:41.852Z,990.46
2022-09-02T04:46:41.800Z,990.46
2022-09-02T04:47:41.729Z,990.41
2022-09-02T04:48:41.616Z,990.42
2022-09-02T04:49:41.538Z,990.43
2022-09-02T04:50:41.459Z,990.48
2022-09-02T04:51:41.382Z,990.46
2022-09-02T04:52:41.358Z,990.44
2022-09-02T04:53:41.428Z,990.46
2022-09-02T04:54:41.385Z,990.51
2022-09-02T04:55:41.115Z,990.48
2022-09-02T04:56:41.031Z,990.53
2022-09-02T04:58:14.362Z,990.50
2022-09-02T04:58:40.868Z,990.51
2022-09-02T04:59:40.792Z,990.50
2022-09-02T05:00:40.909Z,990.50
2022-09-02T05:03:40.445Z,990.51
2022-09-02T05:04:40.364Z,990.53
2022-09-02T05:05:40.285Z,990.52
2022-09-02T05:06:44.052Z,990.55
2022-09-02T05:07:40.128Z,990.54
2022-09-02T05:08:40.052Z,990.55
2022-09-02T05:09:39.974Z,990.55
2022-09-02T05:10:39.894Z,990.57
2022-09-02T05:11:39.814Z,990.57
2022-09-02T05:12:39.738Z,990.56
2022-09-02T05:13:39.659Z,990.56
2022-09-02T05:14:39.581Z,990.52
2022-09-02T05:15:39.515Z,990.53
2022-09-02T05:16:39.423Z,990.54
2022-09-02T05:17:39.346Z,990.54
2022-09-02T05:18:39.267Z,990.53
2022-09-02T05:19:39.190Z,990.54
2022-09-02T05:20:39.113Z,990.51
2022-09-02T05:21:39.135Z,990.51
2022-09-02T05:22:38.952Z,990.49
2022-09-02T05:23:38.878Z,990.47
2022-09-02T05:24:38.796Z,990.52
2022-09-02T05:25:38.722Z,990.51
2022-09-02T05:26:38.640Z,990.51
2022-09-02T05:27:38.564Z,990.55
2022-09-02T06:03:54.080Z,990.57
2022-09-02T06:04:54.000Z,990.57
2022-09-02T06:05:53.922Z,990.55
2022-09-02T06:06:53.844Z,990.58
2022-09-02T06:07:53.765Z,990.58
2022-09-02T06:08:53.689Z,990.59
2022-09-02T06:09:53.607Z,990.58
2022-09-02T06:10:53.532Z,990.56
2022-09-02T06:11:53.452Z,990.56
2022-09-02T06:12:53.415Z,990.58
2022-09-02T06:13:53.297Z,990.58
2022-09-02T06:14:53.220Z,990.59
2022-09-02T06:15:53.202Z,990.59
2022-09-02T06:16:53.067Z,990.59
2022-09-02T06:17:52.985Z,990.61
2022-09-02T06:18:52.908Z,990.56
2022-09-02T06:19:53.007Z,990.59
2022-09-02T06:20:52.752Z,990.61
2022-09-02T06:21:52.674Z,990.58
2022-09-02T06:22:52.597Z,990.56
2022-09-02T06:23:52.522Z,990.59
2022-09-02T06:24:52.451Z,990.57
2022-09-02T06:25:52.363Z,990.59
2022-09-02T06:26:55.545Z,990.60
2022-09-02T06:27:54.828Z,990.57
2022-09-02T06:28:52.132Z,990.58
2022-09-02T06:29:52.053Z,990.57
2022-09-02T06:30:52.036Z,990.58
2022-09-02T06:31:52.506Z,990.59
2022-09-02T06:32:51.822Z,990.61
2022-09-02T06:33:51.744Z,990.60
2022-09-02T06:34:51.670Z,990.57
2022-09-02T06:35:51.590Z,990.57
2022-09-02T06:36:51.515Z,990.54
2022-09-02T06:37:51.437Z,990.56
2022-09-02T06:38:51.359Z,990.58
2022-09-02T06:40:51.687Z,990.58
2022-09-02T07:03:15.170Z,990.55
2022-09-02T07:05:16.421Z,990.57
2022-09-02T07:08:15.855Z,990.55
2022-09-02T07:14:31.864Z,990.48
2022-09-02T07:15:31.789Z,990.55
2022-09-02T07:16:31.759Z,990.56
2022-09-02T07:17:31.642Z,990.53
2022-09-02T07:18:31.560Z,990.52
2022-09-02T07:19:31.522Z,990.54
2022-09-02T07:22:31.259Z,990.53
2022-09-02T07:26:31.703Z,990.55
2022-09-02T07:28:30.839Z,990.56
2022-09-02T07:29:30.764Z,990.60
2022-09-02T07:31:30.606Z,990.56
2022-09-02T07:32:30.538Z,990.56
2022-09-02T07:33:30.661Z,990.63
2022-09-02T07:34:31.097Z,990.63
2022-09-02T07:35:30.713Z,990.62
2022-09-02T07:36:30.399Z,990.57
2022-09-02T07:37:30.155Z,990.60
2022-09-02T07:38:30.283Z,990.57
2022-09-02T07:39:30.204Z,990.57
2022-09-02T07:40:29.993Z,990.63
2022-09-02T07:41:29.853Z,990.61
2022-09-02T07:43:29.668Z,990.60
2022-09-02T07:44:29.592Z,990.57
2022-09-02T07:45:29.518Z,990.61
2022-09-02T07:46:29.541Z,990.63
2022-09-02T07:47:29.365Z,990.63
2022-09-02T07:48:29.289Z,990.57
2022-09-02T07:50:14.452Z,990.59
2022-09-02T07:50:29.138Z,990.61
2022-09-02T07:51:29.159Z,990.61
2022-09-02T07:52:29.039Z,990.60
2022-09-02T07:53:28.917Z,990.53
2022-09-02T07:54:28.837Z,990.61
2022-09-02T07:55:28.765Z,990.57
2022-09-02T07:56:28.688Z,990.55
2022-09-02T07:57:28.614Z,990.52
2022-09-02T07:58:28.539Z,990.55
2022-09-02T07:59:28.502Z,990.52
2022-09-02T08:00:28.388Z,990.51
2022-09-02T08:01:28.501Z,990.54
2022-09-02T08:02:28.280Z,990.50
2022-09-02T08:03:28.203Z,990.50
2022-09-02T08:04:28.088Z,990.49
2022-09-02T08:05:28.014Z,990.49
2022-09-02T08:06:33.771Z,990.52
2022-09-02T08:07:27.866Z,990.49
2022-09-02T08:08:27.787Z,990.48
2022-09-02T08:09:27.865Z,990.51
2022-09-02T08:10:27.639Z,990.47
2022-09-02T08:11:27.566Z,990.44
2022-09-02T08:12:27.488Z,990.48
2022-09-02T08:13:27.705Z,990.50
2022-09-02T08:14:27.339Z,990.47
2022-09-02T08:15:27.265Z,990.47
2022-09-02T08:16:27.249Z,990.50
2022-09-02T08:17:27.366Z,990.46
2022-09-02T08:18:27.039Z,990.49
2022-09-02T08:19:26.964Z,990.50
2022-09-02T08:20:26.893Z,990.52
2022-09-02T08:21:26.819Z,990.48
2022-09-02T08:22:26.836Z,990.47
2022-09-02T08:23:36.640Z,990.51
2022-09-02T08:24:26.592Z,990.49
2022-09-02T08:25:26.556Z,990.52
2022-09-02T08:26:26.681Z,990.45
2022-09-02T08:27:26.405Z,990.45
2022-09-02T08:29:26.221Z,990.45
2022-09-02T08:30:26.145Z,990.47
2022-09-02T08:31:26.297Z,990.42
2022-09-02T08:32:26.147Z,990.40
2022-09-02T08:33:25.923Z,990.45
2022-09-02T08:34:25.846Z,990.43
2022-09-02T08:35:25.776Z,990.41
2022-09-02T08:36:25.733Z,990.44
2022-09-02T08:37:25.664Z,990.46
2022-09-02T08:38:25.583Z,990.43
2022-09-02T08:39:25.519Z,990.45
2022-09-02T08:40:25.798Z,990.44
2022-09-02T08:44:25.137Z,990.47
2022-09-02T08:45:25.089Z,990.46
2022-09-02T08:48:25.363Z,990.42
2022-09-02T08:49:24.970Z,990.44
2022-09-02T08:50:24.696Z,990.48
2022-09-02T08:51:24.586Z,990.44
2022-09-02T08:52:24.512Z,990.44
2022-09-02T08:53:24.484Z,990.45
2022-09-02T08:54:24.362Z,990.39
2022-09-02T08:55:24.287Z,990.39
2022-09-02T08:56:24.214Z,990.34
2022-09-02T08:57:24.143Z,990.42
2022-09-02T08:58:24.230Z,990.37
2022-09-02T09:00:07.435Z,990.40
2022-09-02T09:01:06.434Z,990.43
2022-09-02T09:02:06.354Z,990.41
2022-09-02T09:03:06.255Z,990.39
2022-09-02T09:04:06.182Z,990.39
2022-09-02T09:05:06.111Z,990.34
2022-09-02T09:06:06.038Z,990.42
2022-09-02T09:07:05.959Z,990.41
2022-09-02T09:08:08.501Z,990.35
2022-09-02T09:09:05.814Z,990.33
2022-09-02T09:10:05.740Z,990.36
2022-09-02T09:11:05.664Z,990.32
2022-09-02T09:12:05.587Z,990.31
2022-09-02T09:13:05.516Z,990.28
2022-09-02T09:14:05.443Z,990.41
2022-09-02T09:15:05.366Z,990.33
2022-09-02T09:16:05.391Z,990.30
2022-09-02T09:17:05.223Z,990.32
2022-09-02T09:18:05.296Z,990.28
2022-09-02T09:19:08.626Z,990.28
2022-09-02T09:20:04.996Z,990.27
2022-09-02T09:21:04.924Z,990.29
2022-09-02T09:22:05.100Z,990.31
2022-09-02T09:23:04.778Z,990.27
2022-09-02T09:24:04.706Z,990.25
2022-09-02T09:25:04.983Z,990.23
2022-09-02T09:26:04.555Z,990.26
2022-09-02T09:31:38.354Z,990.09
2022-09-02T09:32:38.235Z,990.05
2022-09-02T09:33:38.157Z,990.11
2022-09-02T09:34:38.085Z,990.13
2022-09-02T09:35:38.010Z,990.14
2022-09-02T09:36:38.087Z,990.08
2022-09-02T09:37:37.861Z,990.09
2022-09-02T09:38:37.789Z,990.07
2022-09-02T09:39:37.713Z,990.04
2022-09-02T09:40:37.714Z,990.04
2022-09-02T09:41:37.569Z,990.04
2022-09-02T09:42:37.493Z,990.03
2022-09-02T09:43:37.418Z,990.04
2022-09-02T09:44:37.355Z,990.03
2022-09-02T09:45:37.306Z,989.99
2022-09-02T09:46:37.202Z,990.02
2022-09-02T09:47:37.127Z,990.00
2022-09-02T09:48:37.053Z,989.97
2022-09-02T09:49:36.981Z,989.97
2022-09-02T09:50:36.905Z,989.99
2022-09-02T09:51:49.897Z,990.07
2022-09-02T09:52:36.862Z,989.97
2022-09-02T09:53:36.685Z,990.03
2022-09-02T09:54:36.614Z,990.06
2022-09-02T09:55:39.787Z,989.98
2022-09-02T09:56:37.386Z,989.96
2022-09-02T09:57:37.622Z,989.98
2022-09-02T09:58:36.318Z,989.96
2022-09-02T09:59:36.244Z,989.96
2022-09-02T10:00:36.211Z,989.94
2022-09-02T10:01:36.198Z,989.96
2022-09-02T10:02:36.614Z,989.90
2022-09-02T10:03:35.950Z,989.97
2022-09-02T10:04:43.978Z,989.95
2022-09-02T10:05:35.807Z,989.94
2022-09-02T10:06:35.735Z,990.01
2022-09-02T10:07:35.697Z,989.97
2022-09-02T10:08:35.585Z,989.86
2022-09-02T10:09:35.518Z,989.84
2022-09-02T10:10:35.440Z,989.87
2022-09-02T10:11:35.365Z,989.89
2022-09-02T10:12:35.294Z,989.88
2022-09-02T10:13:35.221Z,989.89
2022-09-02T10:14:35.194Z,989.90
2022-09-02T10:15:35.074Z,989.89
2022-09-02T10:16:35.077Z,989.94
2022-09-02T10:17:35.079Z,989.96
2022-09-02T10:18:34.854Z,989.90
2022-09-02T10:19:34.781Z,989.88
2022-09-02T10:20:34.709Z,989.93
2022-09-02T10:21:34.637Z,989.94
2022-09-02T10:22:39.508Z,989.88
2022-09-02T10:23:34.531Z,989.80
2022-09-02T10:24:34.656Z,989.84
2022-09-02T10:25:34.380Z,989.85
2022-09-02T10:29:34.056Z,989.82
2022-09-02T10:30:33.981Z,989.83
2022-09-02T10:31:33.966Z,989.82
2022-09-02T10:32:33.836Z,989.80
2022-09-02T10:33:33.765Z,989.79
2022-09-02T10:34:33.691Z,989.76
2022-09-02T10:35:33.619Z,989.76
2022-09-02T10:36:33.545Z,989.82
2022-09-02T10:37:33.476Z,989.75
2022-09-02T10:38:33.399Z,989.73
2022-09-02T10:39:33.536Z,989.74
2022-09-02T10:41:06.465Z,989.74
2022-09-02T10:41:33.223Z,989.67
2022-09-02T10:42:33.113Z,989.72
2022-09-02T10:43:33.039Z,989.75
2022-09-02T10:44:32.969Z,989.71
2022-09-02T10:45:32.896Z,989.71
2022-09-02T10:46:32.843Z,989.69
2022-09-02T10:47:32.750Z,989.69
2022-09-02T10:48:32.679Z,989.68
2022-09-02T10:49:32.608Z,989.75
2022-09-02T10:50:32.535Z,989.71
2022-09-02T10:51:32.461Z,989.72
2022-09-02T10:52:32.430Z,989.72
2022-09-02T10:53:32.317Z,989.76
2022-09-02T10:56:49.684Z,989.65
2022-09-02T10:57:49.613Z,989.67
2022-09-02T10:58:49.681Z,989.69
2022-09-02T10:59:49.476Z,989.66
2022-09-02T11:00:49.416Z,989.66
2022-09-02T11:01:49.362Z,989.63
2022-09-02T11:02:49.251Z,989.58
2022-09-02T11:03:49.909Z,989.60
2022-09-02T11:04:50.122Z,989.57
2022-09-02T11:05:49.045Z,989.52
2022-09-02T11:07:04.310Z,989.56
2022-09-02T11:07:48.898Z,989.56
2022-09-02T11:08:48.821Z,989.58
2022-09-02T11:09:48.755Z,989.60
2022-09-02T11:10:48.717Z,989.50
2022-09-02T11:11:48.611Z,989.54
2022-09-02T11:12:48.774Z,989.54
2022-09-02T11:13:51.089Z,989.48
2022-09-02T11:14:48.433Z,989.53
2022-09-02T11:15:48.359Z,989.47
2022-09-02T11:16:48.252Z,989.51
2022-09-02T11:17:48.185Z,989.49
2022-09-02T11:18:48.110Z,989.51
2022-09-02T11:19:48.041Z,989.50
2022-09-02T11:20:47.967Z,989.38
2022-09-02T11:23:47.757Z,989.41
2022-09-02T11:29:43.998Z,989.33
2022-09-02T11:30:44.005Z,989.31
2022-09-02T11:31:43.857Z,989.28
2022-09-02T11:32:43.781Z,989.18
2022-09-02T11:33:43.712Z,989.17
2022-09-02T11:34:43.643Z,989.17
2022-09-02T11:35:43.566Z,989.20
2022-09-02T11:36:43.498Z,989.19
2022-09-02T11:37:43.576Z,989.18
2022-09-02T11:38:43.357Z,989.13
2022-09-02T11:39:54.465Z,989.12
2022-09-02T11:40:43.772Z,989.02
2022-09-02T11:41:43.181Z,989.01
2022-09-02T11:42:43.072Z,989.14
2022-09-02T11:43:43.019Z,989.19
2022-09-02T11:44:46.915Z,989.31
2022-09-02T11:46:30.420Z,989.36
2022-09-02T11:47:30.280Z,989.40
2022-09-02T11:48:30.207Z,989.37
2022-09-02T11:49:30.136Z,989.46
2022-09-02T11:50:33.712Z,989.42
2022-09-02T11:51:30.438Z,989.43
2022-09-02T11:52:32.787Z,989.46
2022-09-02T11:53:30.705Z,989.24
2022-09-02T11:56:29.647Z,989.39
2022-09-02T11:57:29.584Z,989.39
2022-09-02T11:58:29.750Z,989.47
2022-09-02T11:59:29.699Z,989.41
2022-09-02T12:00:29.580Z,989.43
2022-09-02T12:01:29.315Z,989.39
2022-09-02T12:03:41.172Z,989.36
2022-09-02T12:05:29.532Z,989.29
2022-09-02T12:06:29.143Z,989.42
2022-09-02T12:07:32.649Z,989.39
2022-09-02T12:08:28.859Z,989.43
2022-09-02T12:09:28.995Z,989.39
2022-09-02T12:10:28.731Z,989.40
2022-09-02T12:11:28.667Z,989.34
2022-09-02T12:13:28.540Z,989.40
2022-09-02T12:14:28.480Z,989.42
2022-09-02T12:15:28.418Z,989.34
2022-09-02T12:17:20.856Z,989.26
2022-09-02T12:20:20.672Z,989.34
2022-09-02T12:21:23.039Z,989.40
2022-09-02T12:22:20.548Z,989.37
2022-09-02T12:23:20.490Z,989.39
2022-09-02T12:24:21.384Z,989.50
2022-09-02T12:25:20.364Z,989.49
2022-09-02T12:26:20.303Z,989.65
2022-09-02T12:28:02.788Z,989.53
2022-09-02T12:29:02.730Z,989.55
2022-09-02T12:30:02.676Z,989.47
2022-09-02T12:32:10.147Z,989.52
2022-09-02T12:33:10.066Z,989.50
2022-09-02T12:34:10.002Z,989.49
2022-09-02T12:35:09.942Z,989.45
2022-09-02T12:36:09.892Z,989.50
2022-09-02T12:37:09.824Z,989.49
2022-09-02T12:38:09.765Z,989.50
2022-09-02T12:39:10.057Z,989.50
2022-09-02T12:40:13.202Z,989.47
2022-09-02T12:41:12.335Z,989.49
2022-09-02T12:42:09.543Z,989.44
2022-09-02T12:43:09.459Z,989.43
2022-09-02T12:44:09.410Z,989.38
2022-09-02T12:45:09.338Z,989.42
2022-09-02T12:46:09.354Z,989.41
2022-09-02T12:47:09.225Z,989.43
2022-09-02T12:48:09.170Z,989.40
2022-09-02T12:49:09.120Z,989.42
2022-09-02T12:50:09.136Z,989.36
2022-09-02T12:51:09.044Z,989.30
2022-09-02T12:52:08.925Z,989.23
2022-09-02T12:53:09.237Z,989.25
2022-09-02T12:54:08.874Z,989.20
2022-09-02T12:55:08.750Z,989.22
2022-09-02T12:56:08.687Z,989.24
2022-09-02T12:58:08.561Z,989.19
2022-09-02T12:59:08.500Z,989.27
2022-09-02T13:00:08.438Z,989.22
2022-09-02T13:01:08.381Z,989.28
2022-09-02T13:02:08.323Z,989.25
2022-09-02T13:03:08.261Z,989.25
2022-09-02T13:04:08.203Z,989.24
2022-09-02T13:05:08.143Z,989.19
2022-09-02T13:06:08.086Z,989.21
2022-09-02T13:07:08.024Z,989.21
2022-09-02T13:08:07.974Z,989.15
2022-09-02T13:09:07.929Z,989.12
2022-09-02T13:10:07.847Z,989.07
2022-09-02T13:11:07.784Z,989.06
2022-09-02T13:14:07.606Z,989.08
2022-09-02T13:15:07.549Z,989.10
2022-09-02T13:16:07.547Z,989.10
2022-09-02T13:17:25.810Z,989.04
2022-09-02T13:18:07.372Z,989.06
2022-09-02T13:19:07.312Z,989.03
2022-09-02T13:20:07.251Z,988.98
2022-09-02T13:21:07.195Z,989.07
2022-09-02T13:22:07.138Z,989.11
2022-09-02T13:23:07.075Z,989.07
2022-09-02T13:24:07.017Z,988.98
2022-09-02T13:25:06.985Z,989.03
2022-09-02T13:26:54.462Z,989.08
2022-09-02T13:27:54.404Z,989.11
2022-09-02T13:28:54.341Z,989.08
2022-09-02T13:29:54.283Z,988.98
2022-09-02T13:30:54.339Z,988.86
2022-09-02T13:31:54.164Z,988.85
2022-09-02T13:32:54.166Z,988.86
2022-09-02T13:33:54.044Z,988.79
2022-09-02T13:34:53.986Z,988.76
2022-09-02T13:35:53.924Z,988.70
2022-09-02T13:36:54.015Z,988.82
2022-09-02T13:37:53.871Z,988.79
2022-09-02T13:38:53.765Z,988.75
2022-09-02T13:39:53.688Z,988.78
2022-09-02T13:40:53.624Z,988.74
2022-09-02T13:41:53.568Z,988.73
2022-09-02T13:42:53.512Z,988.76
2022-09-02T13:43:53.447Z,988.72
2022-09-02T13:44:53.385Z,988.66
2022-09-02T13:45:53.374Z,988.66
2022-09-02T13:46:53.267Z,988.60
2022-09-02T13:47:53.210Z,988.54
2022-09-02T13:48:53.149Z,988.52
2022-09-02T13:49:53.089Z,988.50
2022-09-02T13:50:53.029Z,988.47
2022-09-02T13:51:52.973Z,988.51
2022-09-02T13:54:21.566Z,988.44
2022-09-02T13:54:52.790Z,988.42
2022-09-02T13:55:52.735Z,988.41
2022-09-02T13:56:52.672Z,988.34
2022-09-02T13:57:52.649Z,988.38
2022-09-02T13:58:52.555Z,988.37
2022-09-02T13:59:52.495Z,988.33
2022-09-02T14:00:52.630Z,988.36
2022-09-02T14:01:52.579Z,988.30
2022-09-02T14:02:52.397Z,988.41
2022-09-02T14:03:52.350Z,988.29
2022-09-02T14:04:52.245Z,988.28
2022-09-02T14:05:52.137Z,988.26
2022-09-02T14:06:52.075Z,988.27
2022-09-02T14:07:52.017Z,988.23
2022-09-02T14:08:51.954Z,988.20
2022-09-02T14:09:51.894Z,988.23
2022-09-02T14:10:51.832Z,988.15
2022-09-02T14:11:51.825Z,988.10
2022-09-02T14:12:51.714Z,988.18
2022-09-02T14:13:51.654Z,988.05
2022-09-02T14:14:51.590Z,988.04
2022-09-02T14:15:51.649Z,988.06
2022-09-02T14:16:51.474Z,988.07
2022-09-02T14:17:51.410Z,987.96
2022-09-02T14:18:51.348Z,987.97
2022-09-02T14:19:51.289Z,987.97
2022-09-02T14:20:51.426Z,987.91
2022-09-02T14:21:51.170Z,987.95
2022-09-02T14:22:51.107Z,987.97
2022-09-02T14:23:51.052Z,987.97
2022-09-02T14:24:50.983Z,987.90
2022-09-02T14:25:50.923Z,987.91
2022-09-02T14:26:50.865Z,987.91
2022-09-02T14:27:50.805Z,987.89
2022-09-02T14:28:50.741Z,987.88
2022-09-02T14:29:50.680Z,987.85
2022-09-02T14:30:50.737Z,987.88
2022-09-02T14:31:50.563Z,987.83
2022-09-02T14:32:50.496Z,987.80
2022-09-02T14:33:50.435Z,987.66
2022-09-02T14:34:52.998Z,987.73
2022-09-02T14:35:50.519Z,987.69
2022-09-02T14:36:50.304Z,987.64
2022-09-02T14:37:50.195Z,987.63
2022-09-02T14:38:50.157Z,987.67
2022-09-02T14:39:50.111Z,987.69
2022-09-02T14:40:50.009Z,987.65
2022-09-02T14:41:49.952Z,987.66
2022-09-02T14:42:53.720Z,987.62
2022-09-02T14:43:49.826Z,987.56
2022-09-02T14:44:49.764Z,987.56
2022-09-02T14:45:49.833Z,987.55
2022-09-02T14:46:49.642Z,987.48
2022-09-02T14:47:49.581Z,987.50
2022-09-02T14:48:49.519Z,987.61
2022-09-02T14:49:49.461Z,987.57
2022-09-02T14:50:49.399Z,987.52
2022-09-02T14:51:49.337Z,987.44
2022-09-02T15:08:04.766Z,987.25
2022-09-02T15:09:05.049Z,987.33
2022-09-02T15:10:04.643Z,987.32
2022-09-02T15:11:08.013Z,987.29
2022-09-02T15:12:04.520Z,987.29
2022-09-02T15:13:04.461Z,987.26
2022-09-02T15:14:04.400Z,987.24
2022-09-02T15:15:04.338Z,987.28
2022-09-02T15:16:04.323Z,987.30
2022-09-02T15:17:04.217Z,987.27
2022-09-02T15:18:04.195Z,987.26
2022-09-02T15:19:04.106Z,987.23